aviador You're here:

KPOB Decoded Metar

FAYETTEVILLE in NC, USA
Report Time2017-11-24 07:56:00
UTC Time2017-11-24 09:00:36
Flight Rules vfr VFR
WindCalm
Visibility9999 m
Phenomena:N/A
Clouds:N/A
Expected CloudBase > 400 ft AGL from Temp-Dew spread
CeilingNone
Temp-1°C (ISA -16)
Dew Point-2°C (93% RH)
AAT-3.3°C
QNH1018 hPa
Density Alt-1,788 ft
Elevation217 ft
Report Wrong Elevation
Raw Report
KPOB 240756Z AUTO 00000KT 10SM CLR M01/M02 A3006 RMK AO2 SLP184
T10111024=

Extra information for KPOB:More info

Metar Taf Metar & Taf Last 4 Metars F.Rules Stats Wind Profile Meteogram Temp Stats Airport Information Weather charts Add Link Nearby VenuesMetar ALERT Operation Metar Decoded Social comments

AIRNAV info for KPOB